Las Vegas, NV

4:27 PM PDT on September 21, 2014 (GMT -0700)
McCarran International | Change Station
CLOSE
Current Station
Airport
Location: Las Vegas,
Elevation: 2178 ft
Nearby Weather Stations

Elev 2178 ft 36.07 °N, 115.16 °W | Updated 31 minutes ago

Partly Cloudy
Partly Cloudy
92 °F
Feels Like 92 °F
N
5
Wind Variable Wind from Variable

Today
High -- | Low -- °F
--% Chance of Precip.
Yesterday
High -- | Low -- °F
Precip. -- in
6:27 AM 6:38 PM
Waning Crescent, 5% visible
Pressure 29.79 in
Visibility 10.0 miles
Clouds Few 10000 ft
Scattered Clouds 12000 ft
Dew Point 50 °F
Humidity 24%
Rainfall 0.00 in
Snow Depth 0 in , 0 in , 0 in
UV 3 out of 12
Pollen 5.70 out of 12
Ozone Good
PM2.5 Good
Flu Activity Not available.
METAR KLAS 212256Z VRB04KT 10SM FEW100 SCT120 33/10 A2987 RMK AO2 SLP088 T03330100

More Conditions Fewer Conditions

Pressure 29.79 in
Visibility 10.0 miles
Clouds Few 10000 ft
Scattered Clouds 12000 ft
Dew Point 50 °F
Humidity 24%
Rainfall 0.00 in
Snow Depth 0 in , 0 in , 0 in
UV 3 out of 12
Pollen 5.70 out of 12
Ozone Good
PM2.5 Good
Flu Activity Not available.
METAR KLAS 212256Z VRB04KT 10SM FEW100 SCT120 33/10 A2987 RMK AO2 SLP088 T03330100

More Conditions Fewer Conditions

10-Day Weather Forecast

Almanac

Astronomy

Sep. 21, 2014 Rise Set
Actual Time 6:27 AM PDT 6:38 PM PDT
Civil Twilight 6:02 AM PDT 7:04 PM PDT
Nautical Twilight 5:32 AM PDT 7:34 PM PDT
Astronomical Twilight 5:01 AM PDT 8:04 PM PDT
Moon 4:08 AM PDT 5:14 PM PDT
Length of Visible Light 13h 02m
Length of Day
12h 11m
Tomorrow will be 2m 16s shorter.
Waning Crescent, 5% of the Moon is Illuminated
Today
Waning Crescent
Sep 24
New
Oct 1
First Quarter
Oct 8
Full
Oct 15
Last Quarter

Today's Extremes

State Highs State Lows

Community

WunderPhotos

Upload Photos

1,755,292 photos uploaded!

WunderBlogs® & News

Nearby

Air Quality

  Air Quality AQ Index Pollutant
Yesterday Good
OZONE
Yesterday Good
PM10
Current Good
OZONE
Current Good
PM2.5
Sunday Good
PM10
Sunday Good
OZONE
Monday Moderate
OZONE
Monday Good
PM10
Tuesday Moderate
OZONE
Tuesday Good
PM10
Wednesday Moderate
OZONE
Wednesday Good
PM10

Snow Depth

Station Depth Elevation
Pole Creek R.S. 0 in 8330 ft
Ward Mountain 0 in 9200 ft
Seventysix Creek 0 in 7100 ft
Sheldon 0 in 5860 ft
Taylor Canyon 0 in 6200 ft

Earthquake Activity

City Distance Mag. Time & Date
No recent earthquake activity has been reported nearby.
Minimum magnitude displayed is 2.5.

Coastal Water Temperatures

Place Temperature
No Stations Reporting

Nearby Weather Stations